Time;durP1;ratioP1;P1;durP2;ratioP2;P2;SDS_P1;SDS_P2;PMS_P1;PMS_P2;Temp;Humidity;BMP_temperature;BMP_pressure;BME280_temperature;BME280_humidity;BME280_pressure;Samples;Min_cycle;Max_cycle;Signal;HPM_P1;HPM_P2
2021/06/24 00:02:43;;;;;;;0.38;0.38;;;;;;;;;;6214207;23;20171;-88
2021/06/24 00:05:53;;;;;;;0.20;0.20;;;;;;;;;;6230349;23;20191;-89
2021/06/24 00:08:59;;;;;;;0.20;0.20;;;;;;;;;;6212817;22;20167;-89
2021/06/24 00:12:12;;;;;;;0.20;0.20;;;;;;;;;;6212104;23;20171;-92
2021/06/24 00:15:18;;;;;;;0.20;0.20;;;;;;;;;;6218966;22;20234;-88
2021/06/24 00:18:23;;;;;;;0.40;0.40;;;;;;;;;;6217712;23;20195;-89
2021/06/24 00:21:29;;;;;;;0.22;0.22;;;;;;;;;;6212823;23;20163;-91
2021/06/24 00:24:40;;;;;;;0.30;0.30;;;;;;;;;;6219094;23;20207;-90
2021/06/24 00:27:45;;;;;;;0.20;0.20;;;;;;;;;;6215613;22;20171;-91
2021/06/24 00:30:51;;;;;;;0.20;0.20;;;;;;;;;;6212101;23;20167;-90
2021/06/24 00:33:56;;;;;;;0.20;0.20;;;;;;;;;;6212145;23;20214;-90
2021/06/24 00:37:01;;;;;;;0.22;0.22;;;;;;;;;;6226291;23;20199;-89
2021/06/24 00:40:09;;;;;;;0.20;0.20;;;;;;;;;;6210845;23;20240;-91
2021/06/24 00:43:17;;;;;;;0.30;0.30;;;;;;;;;;6228965;22;20166;-89
2021/06/24 00:46:22;;;;;;;0.43;0.43;;;;;;;;;;6229711;23;20184;-90
2021/06/24 00:49:28;;;;;;;0.38;0.38;;;;;;;;;;6229238;23;20167;-90
2021/06/24 00:52:33;;;;;;;0.38;0.38;;;;;;;;;;6210399;23;20279;-90
2021/06/24 00:55:42;;;;;;;0.52;0.45;;;;;;;;;;6228613;23;20219;-89
2021/06/24 00:58:48;;;;;;;0.20;0.20;;;;;;;;;;6227894;23;20532;-88
2021/06/24 01:01:53;;;;;;;0.50;0.50;;;;;;;;;;6209498;23;20210;-92
2021/06/24 01:04:58;;;;;;;0.30;0.30;;;;;;;;;;6227901;23;20171;-90
2021/06/24 01:08:03;;;;;;;0.93;0.68;;;;;;;;;;6208975;23;20520;-91
2021/06/24 01:11:13;;;;;;;1.10;0.68;;;;;;;;;;6226537;23;20240;-90
2021/06/24 01:14:18;;;;;;;0.70;0.70;;;;;;;;;;6227644;23;20171;-90
2021/06/24 01:17:23;;;;;;;0.30;0.30;;;;;;;;;;6211045;23;20194;-88
2021/06/24 01:20:31;;;;;;;0.63;0.63;;;;;;;;;;6227630;23;20167;-88
2021/06/24 01:23:39;;;;;;;0.30;0.30;;;;;;;;;;6227246;23;20198;-91
2021/06/24 01:26:44;;;;;;;0.70;0.70;;;;;;;;;;6226553;23;20276;-89
2021/06/24 01:29:50;;;;;;;0.88;0.70;;;;;;;;;;6227750;23;20171;-88
2021/06/24 01:32:55;;;;;;;0.70;0.70;;;;;;;;;;6238897;22;20170;-89
2021/06/24 01:36:02;;;;;;;0.35;0.35;;;;;;;;;;6232747;22;20191;-88
2021/06/24 01:39:13;;;;;;;0.30;0.30;;;;;;;;;;6214131;23;20231;-91
2021/06/24 01:42:18;;;;;;;0.30;0.30;;;;;;;;;;6230521;23;20155;-90
2021/06/24 01:45:24;;;;;;;0.47;0.47;;;;;;;;;;6211254;22;20169;-89
2021/06/24 01:48:30;;;;;;;0.28;0.28;;;;;;;;;;6210627;22;20171;-90
2021/06/24 01:51:37;;;;;;;0.82;0.82;;;;;;;;;;6211211;23;20183;-88
2021/06/24 01:54:47;;;;;;;0.77;0.77;;;;;;;;;;6230709;22;20158;-89
2021/06/24 01:57:53;;;;;;;2.70;1.05;;;;;;;;;;6230885;22;20179;-91
2021/06/24 02:01:23;;;;;;;0.70;0.70;;;;;;;;;;6230008;22;20162;-91
2021/06/24 02:04:50;;;;;;;4.65;1.70;;;;;;;;;;6229033;23;20172;-90
2021/06/24 02:08:06;;;;;;;1.25;1.02;;;;;;;;;;6229373;23;20170;-90
2021/06/24 02:11:26;;;;;;;0.40;0.40;;;;;;;;;;6213782;23;20163;-89
2021/06/24 02:14:37;;;;;;;1.00;0.95;;;;;;;;;;6231614;23;20171;-88
2021/06/24 02:17:43;;;;;;;1.40;0.88;;;;;;;;;;6231122;22;20246;-89
2021/06/24 02:20:49;;;;;;;0.95;0.90;;;;;;;;;;6211357;23;20222;-90
2021/06/24 02:24:13;;;;;;;0.40;0.40;;;;;;;;;;6228986;23;20321;-88
2021/06/24 02:27:28;;;;;;;1.25;1.15;;;;;;;;;;6229148;23;20367;-90
2021/06/24 02:31:05;;;;;;;0.43;0.43;;;;;;;;;;6229845;23;20254;-91
2021/06/24 02:34:11;;;;;;;0.80;0.80;;;;;;;;;;6213582;23;20155;-89
2021/06/24 02:37:37;;;;;;;0.60;0.60;;;;;;;;;;6228526;23;20175;-89
2021/06/24 02:41:01;;;;;;;0.65;0.65;;;;;;;;;;6230916;23;20179;-89
2021/06/24 02:44:10;;;;;;;0.90;0.90;;;;;;;;;;6228584;23;20171;-88
2021/06/24 02:47:15;;;;;;;7.40;1.67;;;;;;;;;;6229207;22;20283;-88
2021/06/24 02:50:21;;;;;;;0.57;0.57;;;;;;;;;;6229950;23;20236;-91
2021/06/24 02:53:28;;;;;;;0.35;0.35;;;;;;;;;;6229732;23;20179;-88
2021/06/24 02:56:40;;;;;;;1.55;1.17;;;;;;;;;;6228912;23;20194;-87
2021/06/24 03:00:04;;;;;;;0.52;0.52;;;;;;;;;;6229041;23;20239;-91
2021/06/24 03:03:11;;;;;;;1.55;1.45;;;;;;;;;;6210018;23;20242;-89
2021/06/24 03:06:35;;;;;;;1.08;1.08;;;;;;;;;;6228587;22;20195;-90
2021/06/24 03:09:41;;;;;;;1.20;0.90;;;;;;;;;;6228237;23;20174;-89
2021/06/24 03:12:47;;;;;;;3.45;1.20;;;;;;;;;;6228782;23;20170;-89
2021/06/24 03:15:53;;;;;;;0.35;0.35;;;;;;;;;;6228266;23;20171;-92
2021/06/24 03:18:58;;;;;;;1.10;1.10;;;;;;;;;;6209700;22;20163;-89
2021/06/24 03:22:03;;;;;;;0.88;0.88;;;;;;;;;;6227758;23;20171;-89
2021/06/24 03:25:16;;;;;;;0.80;0.80;;;;;;;;;;6225879;23;20183;-89
2021/06/24 03:28:21;;;;;;;0.60;0.60;;;;;;;;;;6226741;22;20159;-91
2021/06/24 03:31:42;;;;;;;2.53;1.48;;;;;;;;;;6227597;23;20168;-89
2021/06/24 03:34:47;;;;;;;3.10;1.02;;;;;;;;;;6208247;23;20561;-88
2021/06/24 03:37:53;;;;;;;0.73;0.73;;;;;;;;;;6227174;22;20199;-89
2021/06/24 03:40:58;;;;;;;3.58;1.35;;;;;;;;;;6225461;22;20619;-90
2021/06/24 03:44:05;;;;;;;0.60;0.60;;;;;;;;;;6227082;22;20166;-89
2021/06/24 03:47:13;;;;;;;0.35;0.35;;;;;;;;;;6228736;23;20199;-90
2021/06/24 03:50:20;;;;;;;1.95;1.00;;;;;;;;;;6227451;23;20222;-87
2021/06/24 03:53:25;;;;;;;0.45;0.45;;;;;;;;;;6228328;23;20167;-91
2021/06/24 03:59:26;;;;;;;0.60;0.60;;;;;;;;;;6186771;22;20486;-88
2021/06/24 04:02:59;;;;;;;1.10;0.85;;;;;;;;;;6208535;22;20162;-89
2021/06/24 04:06:16;;;;;;;11.55;6.90;;;;;;;;;;6209743;23;20156;-91
2021/06/24 04:09:21;;;;;;;15.05;7.35;;;;;;;;;;6209704;23;20282;-90
2021/06/24 04:12:27;;;;;;;13.27;7.63;;;;;;;;;;6211144;23;20179;-92
2021/06/24 04:15:42;;;;;;;13.32;7.30;;;;;;;;;;6208847;23;20179;-89
2021/06/24 04:18:47;;;;;;;13.63;8.02;;;;;;;;;;6208232;23;20170;-89
2021/06/24 04:21:54;;;;;;;15.73;9.30;;;;;;;;;;6212774;22;20150;-90
2021/06/24 04:25:01;;;;;;;14.55;7.25;;;;;;;;;;6209908;22;20175;-89
2021/06/24 04:28:06;;;;;;;12.95;8.02;;;;;;;;;;6212009;23;20618;-91
2021/06/24 04:31:13;;;;;;;13.95;7.68;;;;;;;;;;6209329;23;20606;-89
2021/06/24 04:34:18;;;;;;;12.63;7.53;;;;;;;;;;6211717;23;20171;-91
2021/06/24 04:37:42;;;;;;;14.85;7.63;;;;;;;;;;6212937;22;20633;-91
2021/06/24 04:40:48;;;;;;;16.95;8.25;;;;;;;;;;6210806;23;20233;-91
2021/06/24 04:44:00;;;;;;;14.00;7.20;;;;;;;;;;6210654;23;20155;-90
2021/06/24 04:47:09;;;;;;;14.40;8.32;;;;;;;;;;6194308;22;20166;-89
2021/06/24 04:50:14;;;;;;;11.60;6.90;;;;;;;;;;6212067;23;20158;-90
2021/06/24 04:53:34;;;;;;;12.93;7.53;;;;;;;;;;6209924;23;20176;-90
2021/06/24 04:56:41;;;;;;;12.27;7.75;;;;;;;;;;6209923;23;20230;-88
2021/06/24 04:59:48;;;;;;;12.13;7.95;;;;;;;;;;6213557;23;20249;-90
2021/06/24 05:03:25;;;;;;;15.73;8.45;;;;;;;;;;6231540;23;20167;-90
2021/06/24 05:06:35;;;;;;;16.15;8.23;;;;;;;;;;6210562;23;20559;-91
2021/06/24 05:09:41;;;;;;;14.55;8.35;;;;;;;;;;6211825;23;20167;-91
2021/06/24 05:12:47;;;;;;;14.93;8.63;;;;;;;;;;6213035;23;20171;-90
2021/06/24 05:15:53;;;;;;;14.95;8.52;;;;;;;;;;6213309;23;20236;-90
2021/06/24 05:18:58;;;;;;;17.30;9.30;;;;;;;;;;6212804;22;20171;-89
2021/06/24 05:22:03;;;;;;;15.48;8.52;;;;;;;;;;6212892;23;20172;-89
2021/06/24 05:25:11;;;;;;;16.52;9.25;;;;;;;;;;6212690;23;20162;-91
2021/06/24 05:28:17;;;;;;;18.08;9.20;;;;;;;;;;6213339;23;20212;-89
2021/06/24 05:31:28;;;;;;;19.23;9.05;;;;;;;;;;6212008;23;20218;-89
2021/06/24 05:34:34;;;;;;;20.23;9.50;;;;;;;;;;6214536;22;20151;-88
2021/06/24 05:44:25;;;;;;;16.10;9.93;;;;;;;;;;6214928;23;20183;-89
2021/06/24 05:47:31;;;;;;;16.70;9.40;;;;;;;;;;6214898;23;20167;-90
2021/06/24 05:50:36;;;;;;;29.10;10.70;;;;;;;;;;6214007;23;20183;-91
2021/06/24 05:53:42;;;;;;;15.15;9.68;;;;;;;;;;6219445;23;20191;-92
2021/06/24 05:56:48;;;;;;;23.52;11.40;;;;;;;;;;6213678;23;20206;-89
2021/06/24 05:59:54;;;;;;;17.55;9.10;;;;;;;;;;6230253;23;20602;-90
2021/06/24 06:02:59;;;;;;;17.88;9.30;;;;;;;;;;6213751;23;20166;-90
2021/06/24 06:06:04;;;;;;;18.40;10.27;;;;;;;;;;6214200;23;20167;-89
2021/06/24 06:09:10;;;;;;;15.30;9.95;;;;;;;;;;6232638;22;20166;-87
2021/06/24 06:12:17;;;;;;;19.55;9.93;;;;;;;;;;6211467;23;20175;-86
2021/06/24 06:15:22;;;;;;;16.95;9.13;;;;;;;;;;6213230;23;20172;-88
2021/06/24 06:18:30;;;;;;;18.55;9.80;;;;;;;;;;6219083;23;20254;-88
2021/06/24 06:21:35;;;;;;;19.70;9.82;;;;;;;;;;6218332;23;20151;-88
2021/06/24 06:24:42;;;;;;;17.45;9.77;;;;;;;;;;6216150;22;20493;-89
2021/06/24 06:27:49;;;;;;;16.25;10.02;;;;;;;;;;6215592;23;20171;-89
2021/06/24 06:30:57;;;;;;;18.60;10.38;;;;;;;;;;6232976;23;20171;-89
2021/06/24 06:34:02;;;;;;;19.05;9.88;;;;;;;;;;6214762;23;20171;-90
2021/06/24 06:37:07;;;;;;;15.15;9.68;;;;;;;;;;6216592;22;20203;-90
2021/06/24 06:40:13;;;;;;;21.70;9.88;;;;;;;;;;6216398;23;20171;-89
2021/06/24 06:43:20;;;;;;;15.90;9.20;;;;;;;;;;6214711;23;20175;-91
2021/06/24 06:46:26;;;;;;;27.20;9.25;;;;;;;;;;6217123;23;20163;-88
2021/06/24 06:49:32;;;;;;;19.60;9.32;;;;;;;;;;6215828;23;20194;-90
2021/06/24 06:52:37;;;;;;;18.00;9.88;;;;;;;;;;6213259;23;20172;-90
2021/06/24 06:55:42;;;;;;;16.35;9.13;;;;;;;;;;6213707;23;20195;-91
2021/06/24 06:58:49;;;;;;;14.25;8.52;;;;;;;;;;6213731;23;20198;-90
2021/06/24 07:01:55;;;;;;;16.33;9.50;;;;;;;;;;6183844;23;20192;-88
2021/06/24 07:05:00;;;;;;;15.07;9.32;;;;;;;;;;6183608;23;20215;-90
2021/06/24 07:08:05;;;;;;;17.17;9.50;;;;;;;;;;6185120;23;20180;-89
2021/06/24 07:11:13;;;;;;;23.25;12.98;;;;;;;;;;6181048;23;20495;-89
2021/06/24 07:14:21;;;;;;;16.42;8.55;;;;;;;;;;6181699;23;20175;-88
2021/06/24 07:17:27;;;;;;;16.75;8.82;;;;;;;;;;6180959;23;20190;-88
2021/06/24 07:20:32;;;;;;;17.75;7.97;;;;;;;;;;6182567;23;20233;-91
2021/06/24 07:23:37;;;;;;;18.25;8.48;;;;;;;;;;6184606;23;20191;-90
2021/06/24 07:26:42;;;;;;;12.77;8.15;;;;;;;;;;6183246;23;20171;-91
2021/06/24 07:29:49;;;;;;;14.13;8.60;;;;;;;;;;6185979;23;20184;-92
2021/06/24 07:32:55;;;;;;;15.77;8.32;;;;;;;;;;6189486;23;20171;-92
2021/06/24 08:07:59;;;;;;;13.98;7.13;;;;;;;;;;6159565;22;20483;-89
2021/06/24 08:11:05;;;;;;;13.57;7.60;;;;;;;;;;6217013;23;20171;-90
2021/06/24 08:14:12;;;;;;;10.35;6.80;;;;;;;;;;6216019;23;20214;-91
2021/06/24 08:17:18;;;;;;;13.07;7.40;;;;;;;;;;6214075;23;20191;-91
2021/06/24 08:20:23;;;;;;;12.02;6.75;;;;;;;;;;6215255;22;20162;-90
2021/06/24 08:23:30;;;;;;;10.40;6.03;;;;;;;;;;6215126;22;20163;-93
2021/06/24 12:03:52;;;;;;;5.25;3.20;;;;;;;;;;6235360;22;20214;-93
2021/06/24 12:07:00;;;;;;;4.85;2.88;;;;;;;;;;6218335;22;20226;-91
2021/06/24 12:10:06;;;;;;;4.05;3.40;;;;;;;;;;6217108;23;20177;-94
2021/06/24 12:13:15;;;;;;;3.65;3.05;;;;;;;;;;6217551;22;20178;-93
2021/06/24 12:16:22;;;;;;;4.90;3.08;;;;;;;;;;6236865;22;20195;-93
2021/06/24 12:19:42;;;;;;;6.00;3.00;;;;;;;;;;6218179;22;20219;-93
2021/06/24 12:22:49;;;;;;;4.60;3.17;;;;;;;;;;6217512;23;20210;-92
2021/06/24 12:25:56;;;;;;;4.05;3.10;;;;;;;;;;6217745;23;20171;-94
2021/06/24 12:46:39;;;;;;;5.80;3.25;;;;;;;;;;6227852;22;20195;-92
2021/06/24 12:49:45;;;;;;;5.38;3.17;;;;;;;;;;6219897;22;20165;-93
2021/06/24 12:52:52;;;;;;;5.05;3.45;;;;;;;;;;6220363;22;20181;-91
2021/06/24 12:55:58;;;;;;;4.68;3.70;;;;;;;;;;6220238;23;20215;-92
2021/06/24 13:05:59;;;;;;;4.38;3.78;;;;;;;;;;6220506;22;20167;-92
2021/06/24 17:20:00;;;;;;;5.22;3.58;;;;;;;;;;6163661;22;20267;-90
2021/06/24 17:23:05;;;;;;;9.63;3.90;;;;;;;;;;6216892;23;20219;-91
2021/06/24 17:26:12;;;;;;;7.60;4.10;;;;;;;;;;6215620;22;20167;-91
2021/06/24 17:29:18;;;;;;;11.57;4.22;;;;;;;;;;6215049;23;20199;-93
2021/06/24 17:32:25;;;;;;;10.95;4.25;;;;;;;;;;6216305;22;20160;-93
2021/06/24 17:35:33;;;;;;;10.32;4.63;;;;;;;;;;6216724;23;20199;-93
2021/06/24 17:38:38;;;;;;;6.80;3.83;;;;;;;;;;6216033;23;20251;-93
2021/06/24 21:10:04;;;;;;;10.23;6.20;;;;;;;;;;6205114;22;20215;-92
2021/06/24 21:13:09;;;;;;;13.40;6.03;;;;;;;;;;6215415;23;20246;-92
2021/06/24 21:16:14;;;;;;;13.13;7.00;;;;;;;;;;6212896;23;20230;-92
2021/06/24 21:19:19;;;;;;;10.68;6.40;;;;;;;;;;6213520;23;20194;-89
2021/06/24 22:00:34;;;;;;;11.77;6.45;;;;;;;;;;6161491;22;20291;-90
2021/06/24 22:04:11;;;;;;;11.05;5.60;;;;;;;;;;6217729;23;20214;-89
2021/06/24 22:07:17;;;;;;;10.98;6.60;;;;;;;;;;6219877;23;20618;-89
2021/06/24 22:10:24;;;;;;;10.88;6.45;;;;;;;;;;6214440;23;20191;-91
2021/06/24 22:13:30;;;;;;;11.05;5.78;;;;;;;;;;6211515;23;20224;-90
2021/06/24 22:16:38;;;;;;;8.45;5.45;;;;;;;;;;6212928;22;20147;-90
2021/06/24 22:19:44;;;;;;;10.43;5.90;;;;;;;;;;6212634;23;20197;-90
2021/06/24 22:22:49;;;;;;;12.90;5.50;;;;;;;;;;6213360;23;20214;-91
2021/06/24 22:25:54;;;;;;;7.82;5.40;;;;;;;;;;6211411;22;20163;-91
2021/06/24 22:28:59;;;;;;;13.93;5.80;;;;;;;;;;6212663;23;20760;-88
2021/06/24 22:32:09;;;;;;;9.13;6.05;;;;;;;;;;6211258;22;20214;-90
2021/06/24 22:35:14;;;;;;;11.65;6.13;;;;;;;;;;6210831;23;20477;-87
2021/06/24 22:38:20;;;;;;;10.23;6.25;;;;;;;;;;6211235;23;20195;-90
2021/06/24 22:41:25;;;;;;;10.55;6.60;;;;;;;;;;6211598;23;20167;-89
2021/06/24 22:44:31;;;;;;;9.38;6.07;;;;;;;;;;6211379;23;20182;-90
2021/06/24 22:47:37;;;;;;;11.60;6.88;;;;;;;;;;6209188;23;20166;-89
2021/06/24 22:50:44;;;;;;;10.73;5.00;;;;;;;;;;6211682;23;20155;-90
2021/06/24 22:53:49;;;;;;;11.13;5.38;;;;;;;;;;6211899;23;20154;-90
2021/06/24 22:56:55;;;;;;;10.93;4.93;;;;;;;;;;6211348;23;20230;-90
2021/06/24 23:00:01;;;;;;;7.63;4.30;;;;;;;;;;6215298;23;20661;-90
2021/06/24 23:03:09;;;;;;;7.07;4.10;;;;;;;;;;6198673;23;20172;-89
2021/06/24 23:06:15;;;;;;;6.10;3.63;;;;;;;;;;6198432;23;20192;-89
2021/06/24 23:09:22;;;;;;;6.40;3.95;;;;;;;;;;6198257;23;20167;-90
2021/06/24 23:12:28;;;;;;;7.10;3.63;;;;;;;;;;6198112;23;20172;-88
2021/06/24 23:15:33;;;;;;;6.32;3.58;;;;;;;;;;6199225;23;20175;-91
2021/06/24 23:18:40;;;;;;;5.88;3.97;;;;;;;;;;6199082;23;20178;-90
2021/06/24 23:21:45;;;;;;;7.65;4.03;;;;;;;;;;6199781;23;20196;-90
2021/06/24 23:24:50;;;;;;;5.97;3.70;;;;;;;;;;6197526;23;20188;-91
2021/06/24 23:27:56;;;;;;;8.23;3.58;;;;;;;;;;6198039;23;20288;-90
2021/06/24 23:31:01;;;;;;;6.97;3.78;;;;;;;;;;6196522;23;20287;-89
2021/06/24 23:34:08;;;;;;;6.25;3.90;;;;;;;;;;6197630;23;20616;-90
2021/06/24 23:37:13;;;;;;;5.85;3.38;;;;;;;;;;6197507;23;20171;-89
2021/06/24 23:40:18;;;;;;;7.32;3.45;;;;;;;;;;6196701;23;20260;-91
2021/06/24 23:43:23;;;;;;;6.32;3.75;;;;;;;;;;6196830;23;20203;-89
2021/06/24 23:46:28;;;;;;;7.80;3.45;;;;;;;;;;6197342;23;20175;-90
2021/06/24 23:49:34;;;;;;;5.18;3.70;;;;;;;;;;6197121;23;20175;-89
2021/06/24 23:52:39;;;;;;;9.75;3.20;;;;;;;;;;6196536;23;20184;-90
2021/06/24 23:55:44;;;;;;;5.15;2.88;;;;;;;;;;6196953;23;20167;-89
2021/06/24 23:58:50;;;;;;;6.55;2.92;;;;;;;;;;6196442;23;20646;-89
